Estación Meteorológica Peña el Pijo (Robertgarden) [ 02/03/23 03:03:51 CET ]

Fecha Hora Presion(HPa) Temp (°C) Humedad % Rocio (°C) Viento ( m/s) Direccion Lluvia 1Hora(mm) Lluvia 24H(mm) LLuvia Total(mm)
2012-Mar-05 01:01:44 1015.700 8.9 73 4.3         153.32
2012-Mar-05 02:01:44 1015.300 8.5 74 4.1         153.32
2012-Mar-05 03:01:41 1015.100 7.8 79 4.4         153.32
2012-Mar-05 04:01:45 1014.600 7.3 84 4.8         153.32
2012-Mar-05 05:03:13 1014.300 7.2 86 5.0         153.32
2012-Mar-05 06:01:15 1014.400 6.6 86 4.4         153.32
2012-Mar-05 07:01:14 1014.700 6.7 87 4.7         153.32
2012-Mar-05 08:01:13 1015.200 6.9 86 4.7         153.32
2012-Mar-05 09:01:16 1015.500 8.7 84 6.1         153.32
2012-Mar-05 10:01:18 1015.600 12.1 68 6.3         153.32
2012-Mar-05 11:01:12 1015.600 14.3 53 4.8 0.8 SW     153.32
2012-Mar-05 12:01:12 1015.600 15.9 43 3.3         153.32
2012-Mar-05 13:01:14 1015.200 16.8 36 1.5         153.32
2012-Mar-05 14:01:14 1014.300 18.4 31 1.0         153.32
2012-Mar-05 15:01:13 1013.800 18.9 24 -2.4 0.9 SE     153.32
2012-Mar-05 16:01:19 1013.300 19.8 23 -2.1         153.32
2012-Mar-05 17:01:18 1012.800 19.3 23 -2.6         153.32
2012-Mar-05 18:01:17 1013.400 15.1 26 -4.5         153.32
2012-Mar-05 19:01:14 1014.000 11.5 28 -6.5         153.32
2012-Mar-05 20:01:12 1014.700 7.4 39 -5.7         153.32
2012-Mar-05 21:01:13 1014.700 4.9 47 -5.6         153.32
2012-Mar-05 22:01:12 1015.200 3.3 53 -5.4         153.32
2012-Mar-05 23:01:17 1015.200 2.4 56 -5.5         153.32

Temperatura Máxima:19°    Temperatura Mínima:
Presión Máxima:1015.700 Hpa    Presión Mínima:1012.800 Hpa


Volver